sensor_id;sensor_type;location;lat;lon;timestamp;P1;durP1;ratioP1;P2;durP2;ratioP2
31114;SDS011;17764;47.152;9.828;2022-07-18T00:01:32;2.22;;;1.98;;
31114;SDS011;17764;47.152;9.828;2022-07-18T00:04:00;3.17;;;1.65;;
31114;SDS011;17764;47.152;9.828;2022-07-18T00:06:27;1.60;;;1.50;;
31114;SDS011;17764;47.152;9.828;2022-07-18T00:08:53;3.03;;;1.90;;
31114;SDS011;17764;47.152;9.828;2022-07-18T00:11:19;2.85;;;2.00;;
31114;SDS011;17764;47.152;9.828;2022-07-18T00:13:45;2.88;;;1.85;;
31114;SDS011;17764;47.152;9.828;2022-07-18T00:16:12;2.90;;;1.52;;
31114;SDS011;17764;47.152;9.828;2022-07-18T00:18:38;2.03;;;1.83;;
31114;SDS011;17764;47.152;9.828;2022-07-18T00:21:04;2.58;;;2.05;;
31114;SDS011;17764;47.152;9.828;2022-07-18T00:23:30;1.80;;;1.50;;
31114;SDS011;17764;47.152;9.828;2022-07-18T00:25:56;2.35;;;1.98;;
31114;SDS011;17764;47.152;9.828;2022-07-18T00:28:22;1.90;;;1.70;;
31114;SDS011;17764;47.152;9.828;2022-07-18T00:30:48;2.00;;;1.80;;
31114;SDS011;17764;47.152;9.828;2022-07-18T00:33:14;2.55;;;1.85;;
31114;SDS011;17764;47.152;9.828;2022-07-18T00:35:40;5.38;;;2.00;;
31114;SDS011;17764;47.152;9.828;2022-07-18T00:38:06;2.15;;;1.70;;
31114;SDS011;17764;47.152;9.828;2022-07-18T00:40:33;1.63;;;1.50;;
31114;SDS011;17764;47.152;9.828;2022-07-18T00:43:00;2.33;;;1.95;;
31114;SDS011;17764;47.152;9.828;2022-07-18T00:45:26;1.98;;;1.73;;
31114;SDS011;17764;47.152;9.828;2022-07-18T00:47:52;2.17;;;1.95;;
31114;SDS011;17764;47.152;9.828;2022-07-18T00:50:21;2.00;;;1.63;;
31114;SDS011;17764;47.152;9.828;2022-07-18T00:52:47;2.65;;;1.85;;
31114;SDS011;17764;47.152;9.828;2022-07-18T00:55:13;2.25;;;1.83;;
31114;SDS011;17764;47.152;9.828;2022-07-18T00:57:40;1.90;;;1.70;;
31114;SDS011;17764;47.152;9.828;2022-07-18T01:00:07;2.20;;;1.70;;
31114;SDS011;17764;47.152;9.828;2022-07-18T01:02:54;2.40;;;1.80;;
31114;SDS011;17764;47.152;9.828;2022-07-18T01:05:20;2.63;;;1.80;;
31114;SDS011;17764;47.152;9.828;2022-07-18T01:07:46;2.53;;;1.85;;
31114;SDS011;17764;47.152;9.828;2022-07-18T01:10:12;2.10;;;1.92;;
31114;SDS011;17764;47.152;9.828;2022-07-18T01:12:38;3.83;;;1.70;;
31114;SDS011;17764;47.152;9.828;2022-07-18T01:15:04;2.20;;;1.80;;
31114;SDS011;17764;47.152;9.828;2022-07-18T01:17:31;2.17;;;1.98;;
31114;SDS011;17764;47.152;9.828;2022-07-18T01:19:57;4.35;;;2.00;;
31114;SDS011;17764;47.152;9.828;2022-07-18T01:22:23;3.03;;;1.85;;
31114;SDS011;17764;47.152;9.828;2022-07-18T01:24:49;1.77;;;1.67;;
31114;SDS011;17764;47.152;9.828;2022-07-18T01:27:16;3.25;;;1.75;;
31114;SDS011;17764;47.152;9.828;2022-07-18T01:29:43;2.53;;;1.80;;
31114;SDS011;17764;47.152;9.828;2022-07-18T01:32:10;2.05;;;1.80;;
31114;SDS011;17764;47.152;9.828;2022-07-18T01:34:36;2.28;;;2.00;;
31114;SDS011;17764;47.152;9.828;2022-07-18T01:37:02;2.67;;;1.85;;
31114;SDS011;17764;47.152;9.828;2022-07-18T01:39:29;1.73;;;1.58;;
31114;SDS011;17764;47.152;9.828;2022-07-18T01:41:58;2.20;;;1.80;;
31114;SDS011;17764;47.152;9.828;2022-07-18T01:44:26;2.70;;;1.77;;
31114;SDS011;17764;47.152;9.828;2022-07-18T01:46:52;2.72;;;1.98;;
31114;SDS011;17764;47.152;9.828;2022-07-18T01:49:19;1.70;;;1.60;;
31114;SDS011;17764;47.152;9.828;2022-07-18T01:51:45;2.97;;;2.05;;
31114;SDS011;17764;47.152;9.828;2022-07-18T01:54:12;2.72;;;1.95;;
31114;SDS011;17764;47.152;9.828;2022-07-18T01:56:38;2.58;;;2.10;;
31114;SDS011;17764;47.152;9.828;2022-07-18T01:59:04;2.70;;;2.03;;
31114;SDS011;17764;47.152;9.828;2022-07-18T02:01:30;2.40;;;1.83;;
31114;SDS011;17764;47.152;9.828;2022-07-18T02:03:56;2.17;;;1.90;;
31114;SDS011;17764;47.152;9.828;2022-07-18T02:06:22;2.60;;;2.13;;
31114;SDS011;17764;47.152;9.828;2022-07-18T02:08:48;2.00;;;1.80;;
31114;SDS011;17764;47.152;9.828;2022-07-18T02:11:14;1.88;;;1.73;;
31114;SDS011;17764;47.152;9.828;2022-07-18T02:13:40;2.00;;;1.88;;
31114;SDS011;17764;47.152;9.828;2022-07-18T02:16:06;2.47;;;2.05;;
31114;SDS011;17764;47.152;9.828;2022-07-18T02:18:33;2.30;;;1.88;;
31114;SDS011;17764;47.152;9.828;2022-07-18T02:20:59;2.05;;;1.85;;
31114;SDS011;17764;47.152;9.828;2022-07-18T02:23:25;2.55;;;1.80;;
31114;SDS011;17764;47.152;9.828;2022-07-18T02:25:51;1.90;;;1.80;;
31114;SDS011;17764;47.152;9.828;2022-07-18T02:28:17;2.17;;;1.98;;
31114;SDS011;17764;47.152;9.828;2022-07-18T02:30:44;2.00;;;1.80;;
31114;SDS011;17764;47.152;9.828;2022-07-18T02:33:10;2.10;;;1.92;;
31114;SDS011;17764;47.152;9.828;2022-07-18T02:35:36;2.33;;;1.80;;
31114;SDS011;17764;47.152;9.828;2022-07-18T02:38:02;2.53;;;1.92;;
31114;SDS011;17764;47.152;9.828;2022-07-18T02:40:28;1.88;;;1.70;;
31114;SDS011;17764;47.152;9.828;2022-07-18T02:42:54;2.80;;;2.20;;
31114;SDS011;17764;47.152;9.828;2022-07-18T02:45:20;2.60;;;2.08;;
31114;SDS011;17764;47.152;9.828;2022-07-18T02:47:46;2.15;;;1.95;;
31114;SDS011;17764;47.152;9.828;2022-07-18T02:50:12;3.53;;;2.30;;
31114;SDS011;17764;47.152;9.828;2022-07-18T02:52:39;3.05;;;2.00;;
31114;SDS011;17764;47.152;9.828;2022-07-18T02:55:05;2.67;;;1.70;;
31114;SDS011;17764;47.152;9.828;2022-07-18T02:57:31;2.85;;;1.98;;
31114;SDS011;17764;47.152;9.828;2022-07-18T02:59:57;2.15;;;1.90;;
31114;SDS011;17764;47.152;9.828;2022-07-18T03:02:23;2.30;;;2.10;;
31114;SDS011;17764;47.152;9.828;2022-07-18T03:04:49;2.33;;;1.90;;
31114;SDS011;17764;47.152;9.828;2022-07-18T03:07:16;2.05;;;1.85;;
31114;SDS011;17764;47.152;9.828;2022-07-18T03:09:42;2.42;;;2.00;;
31114;SDS011;17764;47.152;9.828;2022-07-18T03:12:08;2.38;;;1.75;;
31114;SDS011;17764;47.152;9.828;2022-07-18T03:14:34;3.40;;;2.20;;
31114;SDS011;17764;47.152;9.828;2022-07-18T03:17:00;4.57;;;2.00;;
31114;SDS011;17764;47.152;9.828;2022-07-18T03:19:26;2.63;;;2.00;;
31114;SDS011;17764;47.152;9.828;2022-07-18T03:21:52;2.22;;;2.00;;
31114;SDS011;17764;47.152;9.828;2022-07-18T03:24:18;3.25;;;2.10;;
31114;SDS011;17764;47.152;9.828;2022-07-18T03:26:44;3.25;;;2.35;;
31114;SDS011;17764;47.152;9.828;2022-07-18T03:29:11;2.75;;;2.28;;
31114;SDS011;17764;47.152;9.828;2022-07-18T03:31:37;2.85;;;2.42;;
31114;SDS011;17764;47.152;9.828;2022-07-18T03:34:03;2.38;;;2.00;;
31114;SDS011;17764;47.152;9.828;2022-07-18T03:36:29;3.78;;;2.80;;
31114;SDS011;17764;47.152;9.828;2022-07-18T03:38:56;2.50;;;2.10;;
31114;SDS011;17764;47.152;9.828;2022-07-18T03:41:22;3.70;;;2.50;;
31114;SDS011;17764;47.152;9.828;2022-07-18T03:43:48;4.88;;;2.20;;
31114;SDS011;17764;47.152;9.828;2022-07-18T03:46:14;2.47;;;2.13;;
31114;SDS011;17764;47.152;9.828;2022-07-18T03:48:40;2.20;;;1.95;;
31114;SDS011;17764;47.152;9.828;2022-07-18T03:51:06;2.70;;;1.95;;
31114;SDS011;17764;47.152;9.828;2022-07-18T03:53:32;3.40;;;2.20;;
31114;SDS011;17764;47.152;9.828;2022-07-18T03:55:58;2.95;;;2.35;;
31114;SDS011;17764;47.152;9.828;2022-07-18T03:58:24;2.40;;;2.10;;
31114;SDS011;17764;47.152;9.828;2022-07-18T04:00:51;2.40;;;2.20;;
31114;SDS011;17764;47.152;9.828;2022-07-18T04:03:17;2.63;;;1.98;;
31114;SDS011;17764;47.152;9.828;2022-07-18T04:05:43;3.20;;;2.00;;
31114;SDS011;17764;47.152;9.828;2022-07-18T04:08:09;2.20;;;2.00;;
31114;SDS011;17764;47.152;9.828;2022-07-18T04:10:35;2.90;;;2.10;;
31114;SDS011;17764;47.152;9.828;2022-07-18T04:13:05;2.80;;;2.22;;
31114;SDS011;17764;47.152;9.828;2022-07-18T04:15:31;2.25;;;1.90;;
31114;SDS011;17764;47.152;9.828;2022-07-18T04:17:57;2.95;;;2.30;;
31114;SDS011;17764;47.152;9.828;2022-07-18T04:20:24;2.30;;;2.10;;
31114;SDS011;17764;47.152;9.828;2022-07-18T04:22:50;3.25;;;2.40;;
31114;SDS011;17764;47.152;9.828;2022-07-18T04:25:20;2.75;;;2.30;;
31114;SDS011;17764;47.152;9.828;2022-07-18T04:27:47;2.50;;;2.30;;
31114;SDS011;17764;47.152;9.828;2022-07-18T04:30:14;6.63;;;2.33;;
31114;SDS011;17764;47.152;9.828;2022-07-18T04:32:41;2.25;;;2.05;;
31114;SDS011;17764;47.152;9.828;2022-07-18T04:35:07;2.55;;;2.35;;
31114;SDS011;17764;47.152;9.828;2022-07-18T04:37:33;3.63;;;2.38;;
31114;SDS011;17764;47.152;9.828;2022-07-18T04:40:00;2.58;;;2.38;;
31114;SDS011;17764;47.152;9.828;2022-07-18T04:42:27;3.97;;;2.30;;
31114;SDS011;17764;47.152;9.828;2022-07-18T04:44:55;2.92;;;2.28;;
31114;SDS011;17764;47.152;9.828;2022-07-18T04:47:21;3.30;;;2.53;;
31114;SDS011;17764;47.152;9.828;2022-07-18T04:49:47;2.72;;;2.50;;
31114;SDS011;17764;47.152;9.828;2022-07-18T04:52:13;2.97;;;2.60;;
31114;SDS011;17764;47.152;9.828;2022-07-18T04:54:39;2.88;;;2.35;;
31114;SDS011;17764;47.152;9.828;2022-07-18T04:57:05;2.70;;;2.50;;
31114;SDS011;17764;47.152;9.828;2022-07-18T04:59:31;2.92;;;2.47;;
31114;SDS011;17764;47.152;9.828;2022-07-18T05:01:57;5.05;;;2.67;;
31114;SDS011;17764;47.152;9.828;2022-07-18T05:04:23;4.30;;;2.83;;
31114;SDS011;17764;47.152;9.828;2022-07-18T05:06:49;3.55;;;2.95;;
31114;SDS011;17764;47.152;9.828;2022-07-18T05:09:15;2.83;;;2.63;;
31114;SDS011;17764;47.152;9.828;2022-07-18T05:11:41;5.72;;;2.83;;
31114;SDS011;17764;47.152;9.828;2022-07-18T05:14:07;3.60;;;2.78;;
31114;SDS011;17764;47.152;9.828;2022-07-18T05:16:33;4.57;;;2.97;;
31114;SDS011;17764;47.152;9.828;2022-07-18T05:18:59;3.80;;;3.13;;
31114;SDS011;17764;47.152;9.828;2022-07-18T05:21:25;4.45;;;3.17;;
31114;SDS011;17764;47.152;9.828;2022-07-18T05:23:51;5.82;;;3.45;;
31114;SDS011;17764;47.152;9.828;2022-07-18T05:26:17;3.30;;;2.90;;
31114;SDS011;17764;47.152;9.828;2022-07-18T05:28:43;4.15;;;2.95;;
31114;SDS011;17764;47.152;9.828;2022-07-18T05:31:09;4.28;;;3.33;;
31114;SDS011;17764;47.152;9.828;2022-07-18T05:33:35;3.85;;;3.03;;
31114;SDS011;17764;47.152;9.828;2022-07-18T05:36:01;3.50;;;2.80;;
31114;SDS011;17764;47.152;9.828;2022-07-18T05:38:27;5.03;;;2.95;;
31114;SDS011;17764;47.152;9.828;2022-07-18T05:40:53;3.00;;;2.70;;
31114;SDS011;17764;47.152;9.828;2022-07-18T05:43:19;4.53;;;2.75;;
31114;SDS011;17764;47.152;9.828;2022-07-18T05:45:45;4.75;;;2.63;;
31114;SDS011;17764;47.152;9.828;2022-07-18T05:48:11;3.25;;;2.80;;
31114;SDS011;17764;47.152;9.828;2022-07-18T05:50:38;3.00;;;2.70;;
31114;SDS011;17764;47.152;9.828;2022-07-18T05:53:04;3.03;;;2.58;;
31114;SDS011;17764;47.152;9.828;2022-07-18T05:55:30;3.70;;;2.40;;
31114;SDS011;17764;47.152;9.828;2022-07-18T05:57:56;4.13;;;2.30;;
31114;SDS011;17764;47.152;9.828;2022-07-18T06:00:22;3.78;;;2.67;;
31114;SDS011;17764;47.152;9.828;2022-07-18T06:02:48;3.70;;;2.85;;
31114;SDS011;17764;47.152;9.828;2022-07-18T06:05:14;3.30;;;2.60;;
31114;SDS011;17764;47.152;9.828;2022-07-18T06:07:41;3.50;;;2.90;;
31114;SDS011;17764;47.152;9.828;2022-07-18T06:10:07;3.40;;;2.78;;
31114;SDS011;17764;47.152;9.828;2022-07-18T06:12:33;3.80;;;2.67;;
31114;SDS011;17764;47.152;9.828;2022-07-18T06:14:59;2.97;;;2.65;;
31114;SDS011;17764;47.152;9.828;2022-07-18T06:17:26;3.45;;;2.60;;
31114;SDS011;17764;47.152;9.828;2022-07-18T06:19:55;3.15;;;2.35;;
31114;SDS011;17764;47.152;9.828;2022-07-18T06:22:22;3.40;;;2.30;;
31114;SDS011;17764;47.152;9.828;2022-07-18T06:24:48;3.05;;;2.58;;
31114;SDS011;17764;47.152;9.828;2022-07-18T06:27:14;2.55;;;2.20;;
31114;SDS011;17764;47.152;9.828;2022-07-18T06:29:40;3.50;;;2.42;;
31114;SDS011;17764;47.152;9.828;2022-07-18T06:32:06;3.42;;;2.67;;
31114;SDS011;17764;47.152;9.828;2022-07-18T06:34:32;3.05;;;2.10;;
31114;SDS011;17764;47.152;9.828;2022-07-18T06:36:58;2.53;;;2.17;;
31114;SDS011;17764;47.152;9.828;2022-07-18T06:39:24;2.55;;;2.35;;
31114;SDS011;17764;47.152;9.828;2022-07-18T06:41:50;3.08;;;2.30;;
31114;SDS011;17764;47.152;9.828;2022-07-18T06:44:16;2.35;;;2.15;;
31114;SDS011;17764;47.152;9.828;2022-07-18T06:46:42;2.85;;;2.30;;
31114;SDS011;17764;47.152;9.828;2022-07-18T06:49:08;2.78;;;2.30;;
31114;SDS011;17764;47.152;9.828;2022-07-18T06:51:35;2.72;;;2.25;;
31114;SDS011;17764;47.152;9.828;2022-07-18T06:54:02;2.53;;;2.10;;
31114;SDS011;17764;47.152;9.828;2022-07-18T06:56:28;2.10;;;1.90;;
31114;SDS011;17764;47.152;9.828;2022-07-18T06:58:54;3.28;;;2.28;;
31114;SDS011;17764;47.152;9.828;2022-07-18T07:01:20;2.10;;;1.90;;
31114;SDS011;17764;47.152;9.828;2022-07-18T07:03:46;3.30;;;2.10;;
31114;SDS011;17764;47.152;9.828;2022-07-18T07:06:13;2.25;;;2.05;;
31114;SDS011;17764;47.152;9.828;2022-07-18T07:08:41;2.30;;;1.85;;
31114;SDS011;17764;47.152;9.828;2022-07-18T07:11:07;2.42;;;2.05;;
31114;SDS011;17764;47.152;9.828;2022-07-18T07:13:33;2.38;;;1.73;;
31114;SDS011;17764;47.152;9.828;2022-07-18T07:15:59;2.42;;;2.00;;
31114;SDS011;17764;47.152;9.828;2022-07-18T07:18:25;3.00;;;1.90;;
31114;SDS011;17764;47.152;9.828;2022-07-18T07:20:51;2.35;;;1.85;;
31114;SDS011;17764;47.152;9.828;2022-07-18T07:23:18;2.28;;;1.85;;
31114;SDS011;17764;47.152;9.828;2022-07-18T07:25:44;2.75;;;1.77;;
31114;SDS011;17764;47.152;9.828;2022-07-18T07:28:10;3.72;;;2.22;;
31114;SDS011;17764;47.152;9.828;2022-07-18T07:30:36;2.80;;;1.95;;
31114;SDS011;17764;47.152;9.828;2022-07-18T07:33:02;2.38;;;1.80;;
31114;SDS011;17764;47.152;9.828;2022-07-18T07:35:28;2.30;;;1.80;;
31114;SDS011;17764;47.152;9.828;2022-07-18T07:37:55;1.88;;;1.77;;
31114;SDS011;17764;47.152;9.828;2022-07-18T07:40:22;3.88;;;2.30;;
31114;SDS011;17764;47.152;9.828;2022-07-18T07:42:49;2.45;;;2.00;;
31114;SDS011;17764;47.152;9.828;2022-07-18T07:45:16;3.50;;;2.10;;
31114;SDS011;17764;47.152;9.828;2022-07-18T07:47:42;3.33;;;2.20;;
31114;SDS011;17764;47.152;9.828;2022-07-18T07:50:09;3.30;;;2.10;;
31114;SDS011;17764;47.152;9.828;2022-07-18T07:52:35;4.40;;;2.20;;
31114;SDS011;17764;47.152;9.828;2022-07-18T07:55:02;2.10;;;1.90;;
31114;SDS011;17764;47.152;9.828;2022-07-18T07:57:28;2.20;;;2.00;;
31114;SDS011;17764;47.152;9.828;2022-07-18T07:59:54;3.25;;;2.10;;
31114;SDS011;17764;47.152;9.828;2022-07-18T08:02:20;2.58;;;2.38;;
31114;SDS011;17764;47.152;9.828;2022-07-18T08:04:46;3.35;;;2.20;;
31114;SDS011;17764;47.152;9.828;2022-07-18T08:07:13;2.22;;;2.03;;
31114;SDS011;17764;47.152;9.828;2022-07-18T08:09:39;3.00;;;2.35;;
31114;SDS011;17764;47.152;9.828;2022-07-18T08:12:05;2.30;;;2.10;;
31114;SDS011;17764;47.152;9.828;2022-07-18T08:14:31;2.20;;;2.00;;
31114;SDS011;17764;47.152;9.828;2022-07-18T08:16:58;2.33;;;1.80;;
31114;SDS011;17764;47.152;9.828;2022-07-18T08:19:24;2.55;;;2.10;;
31114;SDS011;17764;47.152;9.828;2022-07-18T08:21:50;2.33;;;1.95;;
31114;SDS011;17764;47.152;9.828;2022-07-18T08:24:16;2.42;;;1.73;;
31114;SDS011;17764;47.152;9.828;2022-07-18T08:26:43;6.80;;;2.60;;
31114;SDS011;17764;47.152;9.828;2022-07-18T08:29:09;7.93;;;2.55;;
31114;SDS011;17764;47.152;9.828;2022-07-18T08:31:35;3.63;;;2.30;;
31114;SDS011;17764;47.152;9.828;2022-07-18T08:34:01;2.10;;;1.90;;
31114;SDS011;17764;47.152;9.828;2022-07-18T08:36:40;2.95;;;2.20;;
31114;SDS011;17764;47.152;9.828;2022-07-18T08:39:06;2.42;;;2.17;;
31114;SDS011;17764;47.152;9.828;2022-07-18T08:41:32;3.38;;;2.30;;
31114;SDS011;17764;47.152;9.828;2022-07-18T08:43:58;5.18;;;2.60;;
31114;SDS011;17764;47.152;9.828;2022-07-18T08:46:24;3.38;;;2.50;;
31114;SDS011;17764;47.152;9.828;2022-07-18T08:48:50;3.70;;;2.42;;
31114;SDS011;17764;47.152;9.828;2022-07-18T08:51:18;3.88;;;2.53;;
31114;SDS011;17764;47.152;9.828;2022-07-18T08:53:47;6.18;;;2.50;;
31114;SDS011;17764;47.152;9.828;2022-07-18T08:56:13;3.70;;;2.60;;
31114;SDS011;17764;47.152;9.828;2022-07-18T08:58:40;3.13;;;2.25;;
31114;SDS011;17764;47.152;9.828;2022-07-18T09:01:06;6.35;;;2.58;;
31114;SDS011;17764;47.152;9.828;2022-07-18T09:03:33;3.65;;;2.67;;
31114;SDS011;17764;47.152;9.828;2022-07-18T09:06:03;5.57;;;2.30;;
31114;SDS011;17764;47.152;9.828;2022-07-18T09:08:29;2.58;;;2.38;;
31114;SDS011;17764;47.152;9.828;2022-07-18T09:10:56;5.20;;;2.70;;
31114;SDS011;17764;47.152;9.828;2022-07-18T09:16:12;3.60;;;2.80;;
31114;SDS011;17764;47.152;9.828;2022-07-18T09:18:39;4.53;;;2.42;;
31114;SDS011;17764;47.152;9.828;2022-07-18T09:21:09;9.88;;;2.58;;
31114;SDS011;17764;47.152;9.828;2022-07-18T09:23:37;3.65;;;2.47;;
31114;SDS011;17764;47.152;9.828;2022-07-18T09:26:05;3.75;;;2.50;;
31114;SDS011;17764;47.152;9.828;2022-07-18T09:28:50;4.88;;;2.53;;
31114;SDS011;17764;47.152;9.828;2022-07-18T09:31:17;4.35;;;2.60;;
31114;SDS011;17764;47.152;9.828;2022-07-18T09:33:51;5.20;;;2.70;;
31114;SDS011;17764;47.152;9.828;2022-07-18T09:36:17;4.95;;;2.50;;
31114;SDS011;17764;47.152;9.828;2022-07-18T09:38:43;3.03;;;2.45;;
31114;SDS011;17764;47.152;9.828;2022-07-18T09:41:10;3.15;;;2.35;;
31114;SDS011;17764;47.152;9.828;2022-07-18T09:43:37;3.22;;;2.10;;
31114;SDS011;17764;47.152;9.828;2022-07-18T09:46:04;4.85;;;2.30;;
31114;SDS011;17764;47.152;9.828;2022-07-18T09:48:31;3.50;;;2.13;;
31114;SDS011;17764;47.152;9.828;2022-07-18T09:55:54;3.42;;;2.28;;
31114;SDS011;17764;47.152;9.828;2022-07-18T09:58:21;4.13;;;2.30;;
31114;SDS011;17764;47.152;9.828;2022-07-18T10:00:48;2.13;;;1.92;;
31114;SDS011;17764;47.152;9.828;2022-07-18T10:03:15;3.03;;;2.30;;
31114;SDS011;17764;47.152;9.828;2022-07-18T10:05:42;2.30;;;2.03;;
31114;SDS011;17764;47.152;9.828;2022-07-18T10:08:09;4.95;;;2.58;;
31114;SDS011;17764;47.152;9.828;2022-07-18T10:10:37;4.47;;;2.40;;
31114;SDS011;17764;47.152;9.828;2022-07-18T10:13:03;7.88;;;2.45;;
31114;SDS011;17764;47.152;9.828;2022-07-18T10:15:30;3.30;;;2.28;;
31114;SDS011;17764;47.152;9.828;2022-07-18T10:17:57;5.72;;;2.40;;
31114;SDS011;17764;47.152;9.828;2022-07-18T10:20:27;3.47;;;2.25;;
31114;SDS011;17764;47.152;9.828;2022-07-18T10:22:54;5.35;;;2.58;;
31114;SDS011;17764;47.152;9.828;2022-07-18T10:25:23;3.15;;;2.10;;
31114;SDS011;17764;47.152;9.828;2022-07-18T10:30:19;5.15;;;2.00;;
31114;SDS011;17764;47.152;9.828;2022-07-18T10:32:59;2.90;;;2.13;;
31114;SDS011;17764;47.152;9.828;2022-07-18T10:38:21;4.45;;;2.10;;
31114;SDS011;17764;47.152;9.828;2022-07-18T10:41:03;4.90;;;2.28;;
31114;SDS011;17764;47.152;9.828;2022-07-18T10:43:34;2.60;;;2.10;;
31114;SDS011;17764;47.152;9.828;2022-07-18T10:46:08;2.70;;;2.10;;
31114;SDS011;17764;47.152;9.828;2022-07-18T10:59:16;2.40;;;2.03;;
31114;SDS011;17764;47.152;9.828;2022-07-18T11:01:48;3.85;;;2.15;;
31114;SDS011;17764;47.152;9.828;2022-07-18T11:04:38;4.25;;;1.90;;
31114;SDS011;17764;47.152;9.828;2022-07-18T11:07:11;2.60;;;1.98;;
31114;SDS011;17764;47.152;9.828;2022-07-18T11:15:12;6.38;;;2.10;;
31114;SDS011;17764;47.152;9.828;2022-07-18T11:22:50;2.38;;;1.70;;
31114;SDS011;17764;47.152;9.828;2022-07-18T11:25:19;6.65;;;1.90;;
31114;SDS011;17764;47.152;9.828;2022-07-18T11:27:45;2.13;;;1.58;;
31114;SDS011;17764;47.152;9.828;2022-07-18T11:30:18;1.88;;;1.50;;
31114;SDS011;17764;47.152;9.828;2022-07-18T11:32:44;2.20;;;1.60;;
31114;SDS011;17764;47.152;9.828;2022-07-18T11:35:12;2.90;;;1.88;;
31114;SDS011;17764;47.152;9.828;2022-07-18T11:37:38;2.35;;;1.65;;
31114;SDS011;17764;47.152;9.828;2022-07-18T11:40:05;2.47;;;1.55;;
31114;SDS011;17764;47.152;9.828;2022-07-18T11:42:38;4.03;;;2.08;;
31114;SDS011;17764;47.152;9.828;2022-07-18T11:45:05;4.88;;;1.83;;
31114;SDS011;17764;47.152;9.828;2022-07-18T11:47:40;3.15;;;1.60;;
31114;SDS011;17764;47.152;9.828;2022-07-18T11:50:10;1.55;;;1.33;;
31114;SDS011;17764;47.152;9.828;2022-07-18T11:52:37;1.88;;;1.25;;
31114;SDS011;17764;47.152;9.828;2022-07-18T11:55:03;1.63;;;1.10;;
31114;SDS011;17764;47.152;9.828;2022-07-18T11:57:30;2.28;;;1.08;;
31114;SDS011;17764;47.152;9.828;2022-07-18T11:59:57;1.73;;;1.30;;
31114;SDS011;17764;47.152;9.828;2022-07-18T12:05:32;2.88;;;1.40;;
31114;SDS011;17764;47.152;9.828;2022-07-18T12:07:59;1.52;;;1.40;;
31114;SDS011;17764;47.152;9.828;2022-07-18T12:10:25;2.05;;;1.50;;
31114;SDS011;17764;47.152;9.828;2022-07-18T12:12:51;2.50;;;1.50;;
31114;SDS011;17764;47.152;9.828;2022-07-18T12:15:17;1.23;;;1.13;;
31114;SDS011;17764;47.152;9.828;2022-07-18T12:17:44;1.48;;;1.20;;
31114;SDS011;17764;47.152;9.828;2022-07-18T12:20:13;1.98;;;1.50;;
31114;SDS011;17764;47.152;9.828;2022-07-18T12:25:43;4.70;;;1.40;;
31114;SDS011;17764;47.152;9.828;2022-07-18T12:28:12;5.55;;;1.75;;
31114;SDS011;17764;47.152;9.828;2022-07-18T12:30:40;5.28;;;1.77;;
31114;SDS011;17764;47.152;9.828;2022-07-18T12:33:09;5.43;;;2.20;;
31114;SDS011;17764;47.152;9.828;2022-07-18T12:35:35;3.97;;;1.60;;
31114;SDS011;17764;47.152;9.828;2022-07-18T12:38:11;2.05;;;1.58;;
31114;SDS011;17764;47.152;9.828;2022-07-18T12:40:42;2.78;;;1.30;;
31114;SDS011;17764;47.152;9.828;2022-07-18T12:45:48;1.40;;;1.30;;
31114;SDS011;17764;47.152;9.828;2022-07-18T12:48:15;3.10;;;1.30;;
31114;SDS011;17764;47.152;9.828;2022-07-18T12:50:41;1.30;;;1.20;;
31114;SDS011;17764;47.152;9.828;2022-07-18T12:53:10;1.63;;;1.40;;
31114;SDS011;17764;47.152;9.828;2022-07-18T12:55:36;4.47;;;1.60;;
31114;SDS011;17764;47.152;9.828;2022-07-18T12:58:03;4.78;;;1.77;;
31114;SDS011;17764;47.152;9.828;2022-07-18T13:00:31;4.22;;;1.52;;
31114;SDS011;17764;47.152;9.828;2022-07-18T13:02:58;2.70;;;1.30;;
31114;SDS011;17764;47.152;9.828;2022-07-18T13:05:26;2.15;;;1.50;;
31114;SDS011;17764;47.152;9.828;2022-07-18T13:07:52;4.35;;;1.60;;
31114;SDS011;17764;47.152;9.828;2022-07-18T13:10:18;2.70;;;1.80;;
31114;SDS011;17764;47.152;9.828;2022-07-18T13:12:44;5.45;;;1.40;;
31114;SDS011;17764;47.152;9.828;2022-07-18T13:15:10;2.80;;;1.30;;
31114;SDS011;17764;47.152;9.828;2022-07-18T13:17:37;6.00;;;1.20;;
31114;SDS011;17764;47.152;9.828;2022-07-18T13:20:04;3.55;;;1.40;;
31114;SDS011;17764;47.152;9.828;2022-07-18T13:22:31;1.65;;;1.20;;
31114;SDS011;17764;47.152;9.828;2022-07-18T13:25:05;1.95;;;1.40;;
31114;SDS011;17764;47.152;9.828;2022-07-18T13:27:32;1.88;;;1.33;;
31114;SDS011;17764;47.152;9.828;2022-07-18T13:29:59;3.65;;;1.70;;
31114;SDS011;17764;47.152;9.828;2022-07-18T13:32:26;2.55;;;1.67;;
31114;SDS011;17764;47.152;9.828;2022-07-18T13:34:52;2.88;;;1.20;;
31114;SDS011;17764;47.152;9.828;2022-07-18T13:37:18;1.85;;;1.35;;
31114;SDS011;17764;47.152;9.828;2022-07-18T13:39:44;1.48;;;1.00;;
31114;SDS011;17764;47.152;9.828;2022-07-18T13:42:10;2.00;;;1.20;;
31114;SDS011;17764;47.152;9.828;2022-07-18T13:44:36;3.63;;;1.30;;
31114;SDS011;17764;47.152;9.828;2022-07-18T13:47:02;4.45;;;1.65;;
31114;SDS011;17764;47.152;9.828;2022-07-18T13:49:29;2.53;;;1.20;;
31114;SDS011;17764;47.152;9.828;2022-07-18T13:51:55;2.92;;;1.33;;
31114;SDS011;17764;47.152;9.828;2022-07-18T13:54:21;1.60;;;1.35;;
31114;SDS011;17764;47.152;9.828;2022-07-18T13:56:47;2.17;;;1.25;;
31114;SDS011;17764;47.152;9.828;2022-07-18T13:59:13;1.67;;;1.15;;
31114;SDS011;17764;47.152;9.828;2022-07-18T14:01:40;4.90;;;1.63;;
31114;SDS011;17764;47.152;9.828;2022-07-18T14:04:06;2.65;;;1.50;;
31114;SDS011;17764;47.152;9.828;2022-07-18T14:06:32;3.25;;;1.58;;
31114;SDS011;17764;47.152;9.828;2022-07-18T14:09:00;2.78;;;1.30;;
31114;SDS011;17764;47.152;9.828;2022-07-18T14:11:26;4.28;;;1.40;;
31114;SDS011;17764;47.152;9.828;2022-07-18T14:13:52;3.33;;;1.70;;
31114;SDS011;17764;47.152;9.828;2022-07-18T14:16:18;2.33;;;1.33;;
31114;SDS011;17764;47.152;9.828;2022-07-18T14:18:44;2.97;;;1.33;;
31114;SDS011;17764;47.152;9.828;2022-07-18T14:21:10;2.67;;;1.50;;
31114;SDS011;17764;47.152;9.828;2022-07-18T14:23:36;6.07;;;1.63;;
31114;SDS011;17764;47.152;9.828;2022-07-18T14:26:02;3.08;;;1.45;;
31114;SDS011;17764;47.152;9.828;2022-07-18T14:28:28;5.05;;;1.80;;
31114;SDS011;17764;47.152;9.828;2022-07-18T14:30:54;3.75;;;1.42;;
31114;SDS011;17764;47.152;9.828;2022-07-18T14:33:20;3.35;;;1.40;;
31114;SDS011;17764;47.152;9.828;2022-07-18T14:35:46;8.20;;;1.40;;
31114;SDS011;17764;47.152;9.828;2022-07-18T14:38:12;1.83;;;1.30;;
31114;SDS011;17764;47.152;9.828;2022-07-18T14:40:38;3.33;;;1.55;;
31114;SDS011;17764;47.152;9.828;2022-07-18T14:43:05;3.42;;;1.33;;
31114;SDS011;17764;47.152;9.828;2022-07-18T14:45:31;2.45;;;1.23;;
31114;SDS011;17764;47.152;9.828;2022-07-18T14:47:57;2.72;;;1.40;;
31114;SDS011;17764;47.152;9.828;2022-07-18T14:50:23;5.28;;;1.75;;
31114;SDS011;17764;47.152;9.828;2022-07-18T14:52:49;2.60;;;1.13;;
31114;SDS011;17764;47.152;9.828;2022-07-18T14:55:15;3.15;;;1.35;;
31114;SDS011;17764;47.152;9.828;2022-07-18T14:57:41;1.40;;;1.15;;
31114;SDS011;17764;47.152;9.828;2022-07-18T15:00:08;1.85;;;1.27;;
31114;SDS011;17764;47.152;9.828;2022-07-18T15:02:34;2.05;;;1.23;;
31114;SDS011;17764;47.152;9.828;2022-07-18T15:05:01;2.60;;;1.30;;
31114;SDS011;17764;47.152;9.828;2022-07-18T15:07:28;4.22;;;1.40;;
31114;SDS011;17764;47.152;9.828;2022-07-18T15:09:54;1.65;;;1.33;;
31114;SDS011;17764;47.152;9.828;2022-07-18T15:12:20;3.75;;;1.25;;
31114;SDS011;17764;47.152;9.828;2022-07-18T15:14:46;2.40;;;1.30;;
31114;SDS011;17764;47.152;9.828;2022-07-18T15:17:12;2.90;;;1.13;;
31114;SDS011;17764;47.152;9.828;2022-07-18T15:19:39;3.92;;;1.33;;
31114;SDS011;17764;47.152;9.828;2022-07-18T15:22:05;1.98;;;1.27;;
31114;SDS011;17764;47.152;9.828;2022-07-18T15:24:32;2.78;;;1.50;;
31114;SDS011;17764;47.152;9.828;2022-07-18T15:26:58;4.00;;;1.33;;
31114;SDS011;17764;47.152;9.828;2022-07-18T15:29:24;2.67;;;1.08;;